Pagrindinis puslapis
METAR-TAF:

METAR-TAF

Oro uostai :

Altenburgas, Vokietija

platuma: 50-58N, ilguma: 012-30E, Aukštis: 195 m

Dabartinis oras

Ataskaita buvo paskelbta 34 minutes, ne 02:50 UTC
Vėjas 17 kt iš Vakarų su gūsio iki 27 kt
Temperatūra 9°C
Drėgmė 87%
Slėgis 1012 hPa
Matomumas 10 km arba daugiau

METAR: EDAC 170250Z AUTO 26017G27KT 9999 // FEW019/// OVC034/// 09/07 Q1012

Laikas: 04:24 (03:24 UTC)

Prognozė

Ataskaita buvo paskelbta 13 valandos ir 24 minutes, ne 14:00 UTC
Prognozė galioja nuo 16 metu 15 UTC su 16 metu 24 UTC
Vėjas 20 kt iš Pietų/Pietvakarių su gūsio iki 30 kt
Matomumas 10 km arba daugiau
nėra debesų žemiau 1500 m ir nėra kamuolinių lietaus debesų
Tikimybė 40% :
Laikinai
nuo 16 metu 15 UTC su 16 metu 24 UTC
Vėjas 25 kt iš Pietų/Pietvakarių su gūsio iki 40 kt

TAF: EDAC 161400Z 1615/1624 20020G30KT CAVOK PROB40 TEMPO 1615/1624 21025G40KT

Orai ataskaitas ir orų prognozės (METAR, TAF).

turimą stotys yra geltonos ir raudonos taškus žemėlapyje.

Perkelti pele per norėdami pamatyti stoties vardą.

Tada spustelėkite, norėdami matyti oro stebėjimo ir prognozės.

Norėdami pakeisti žemėlapį: spustelėkite ant žalios mygtukų su juodo kryžiaus žemyn,; žalią mygtuką su brūkšneliu, jei norite nutolinti; arba žalių rodyklių gretimoms žemėlapius.


METAR-TAF: